Time;durP1;ratioP1;P1;durP2;ratioP2;P2;SDS_P1;SDS_P2;PMS_P1;PMS_P2;Temp;Humidity;BMP_temperature;BMP_pressure;BME280_temperature;BME280_humidity;BME280_pressure;Samples;Min_cycle;Max_cycle;Signal;HPM_P1;HPM_P2
2021/11/03 00:02:02;;;;;;;8.10;5.57;;;;;;;;;;5098003;28;20035;-76
2021/11/03 00:04:30;;;;;;;8.00;4.57;;;;;;;;;;5097442;28;20036;-76
2021/11/03 00:06:56;;;;;;;7.15;4.43;;;;;;;;;;5098461;28;20099;-76
2021/11/03 00:09:22;;;;;;;7.20;4.65;;;;;;;;;;5098199;28;20034;-75
2021/11/03 00:11:48;;;;;;;7.30;4.30;;;;;;;;;;5097660;28;20021;-77
2021/11/03 00:14:14;;;;;;;7.47;4.72;;;;;;;;;;5097130;28;20020;-76
2021/11/03 00:16:40;;;;;;;7.85;4.82;;;;;;;;;;5098406;28;20030;-75
2021/11/03 00:19:06;;;;;;;8.20;7.20;;;;;;;;;;5097851;28;20020;-75
2021/11/03 00:21:32;;;;;;;12.73;5.90;;;;;;;;;;5098852;28;20028;-75
2021/11/03 00:23:58;;;;;;;14.05;8.50;;;;;;;;;;5098362;28;20069;-75
2021/11/03 00:26:24;;;;;;;8.63;7.07;;;;;;;;;;5100717;28;20389;-75
2021/11/03 00:28:50;;;;;;;9.25;7.30;;;;;;;;;;5102074;28;20028;-76
2021/11/03 00:31:17;;;;;;;10.50;9.00;;;;;;;;;;5102452;28;20044;-75
2021/11/03 00:33:43;;;;;;;11.50;7.47;;;;;;;;;;5102227;28;20028;-76
2021/11/03 00:36:09;;;;;;;6.68;5.78;;;;;;;;;;5102084;28;20066;-76
2021/11/03 00:38:35;;;;;;;8.63;7.55;;;;;;;;;;5100446;28;20039;-76
2021/11/03 00:41:01;;;;;;;16.60;13.93;;;;;;;;;;5101895;28;20028;-77
2021/11/03 00:43:27;;;;;;;15.43;13.63;;;;;;;;;;5101989;28;20406;-77
2021/11/03 00:45:53;;;;;;;16.85;15.00;;;;;;;;;;5101606;28;20382;-76
2021/11/03 00:48:20;;;;;;;22.30;17.27;;;;;;;;;;5101388;28;20036;-76
2021/11/03 00:50:46;;;;;;;14.93;10.48;;;;;;;;;;5101964;28;20020;-75
2021/11/03 00:53:12;;;;;;;12.82;9.27;;;;;;;;;;5101823;28;20103;-76
2021/11/03 00:55:38;;;;;;;12.70;6.25;;;;;;;;;;5101647;28;20028;-75
2021/11/03 00:58:04;;;;;;;7.90;4.95;;;;;;;;;;5101418;28;20045;-76
2021/11/03 01:00:31;;;;;;;7.82;4.28;;;;;;;;;;5101661;28;20031;-75
2021/11/03 01:02:57;;;;;;;7.28;5.53;;;;;;;;;;5101188;28;20041;-76
2021/11/03 01:05:24;;;;;;;10.43;7.05;;;;;;;;;;5101345;28;20032;-75
2021/11/03 01:07:50;;;;;;;6.00;3.97;;;;;;;;;;5101452;28;20020;-76
2021/11/03 01:10:17;;;;;;;6.20;3.33;;;;;;;;;;5100741;28;20474;-76
2021/11/03 01:12:44;;;;;;;6.88;3.58;;;;;;;;;;5101685;28;20024;-75
2021/11/03 01:15:13;;;;;;;6.35;3.35;;;;;;;;;;5100521;28;20060;-76
2021/11/03 01:17:39;;;;;;;7.63;3.70;;;;;;;;;;5100812;28;20031;-76
2021/11/03 01:20:10;;;;;;;8.45;3.67;;;;;;;;;;5101105;28;20060;-76
2021/11/03 01:22:37;;;;;;;5.53;3.58;;;;;;;;;;5101110;28;20020;-76
2021/11/03 01:25:03;;;;;;;10.05;6.00;;;;;;;;;;5100982;28;20043;-77
2021/11/03 01:27:29;;;;;;;22.85;11.23;;;;;;;;;;5099416;28;20131;-75
2021/11/03 01:29:55;;;;;;;27.48;14.02;;;;;;;;;;5099299;28;20032;-75
2021/11/03 01:32:21;;;;;;;28.85;15.55;;;;;;;;;;5100855;28;20028;-77
2021/11/03 01:34:47;;;;;;;36.80;17.33;;;;;;;;;;5099614;28;20028;-75
2021/11/03 01:37:14;;;;;;;22.35;12.40;;;;;;;;;;5099089;28;20490;-75
2021/11/03 01:39:40;;;;;;;17.83;8.60;;;;;;;;;;5101091;28;20028;-75
2021/11/03 01:42:06;;;;;;;13.27;7.13;;;;;;;;;;5100532;28;20028;-76
2021/11/03 01:44:32;;;;;;;9.15;5.72;;;;;;;;;;5100294;28;20412;-75
2021/11/03 01:47:17;;;;;;;5.93;3.35;;;;;;;;;;5100348;28;20028;-76
2021/11/03 01:49:43;;;;;;;7.15;3.35;;;;;;;;;;5100631;28;20582;-77
2021/11/03 01:52:12;;;;;;;10.95;4.47;;;;;;;;;;5099231;28;20382;-76
2021/11/03 01:54:51;;;;;;;9.90;4.07;;;;;;;;;;5100169;28;20113;-76
2021/11/03 01:57:19;;;;;;;6.90;3.10;;;;;;;;;;5100260;28;20085;-77
2021/11/03 01:59:46;;;;;;;5.25;3.25;;;;;;;;;;5099572;28;20028;-77
2021/11/03 02:02:15;;;;;;;4.97;2.90;;;;;;;;;;5099994;28;20482;-76
2021/11/03 02:04:41;;;;;;;4.85;3.15;;;;;;;;;;5100115;28;20398;-76
2021/11/03 02:07:13;;;;;;;4.97;2.80;;;;;;;;;;5099656;28;20032;-76
2021/11/03 02:09:40;;;;;;;5.05;2.97;;;;;;;;;;5100540;28;20020;-76
2021/11/03 02:12:06;;;;;;;8.38;4.15;;;;;;;;;;5100106;28;20419;-76
2021/11/03 02:14:32;;;;;;;7.50;4.25;;;;;;;;;;5099752;28;20035;-76
2021/11/03 02:16:58;;;;;;;6.55;3.38;;;;;;;;;;5099787;28;20473;-76
2021/11/03 02:19:30;;;;;;;6.65;3.33;;;;;;;;;;5100183;28;20035;-75
2021/11/03 02:22:02;;;;;;;7.35;2.63;;;;;;;;;;5100089;28;20069;-77
2021/11/03 02:24:31;;;;;;;9.15;3.95;;;;;;;;;;5100293;28;20107;-76
2021/11/03 02:26:58;;;;;;;5.05;2.70;;;;;;;;;;5099823;28;20028;-76
2021/11/03 02:29:24;;;;;;;3.88;2.63;;;;;;;;;;5100337;28;20058;-76
2021/11/03 02:31:52;;;;;;;5.15;2.45;;;;;;;;;;5099949;28;20028;-77
2021/11/03 02:34:23;;;;;;;6.43;2.95;;;;;;;;;;5098109;28;20107;-76
2021/11/03 02:36:52;;;;;;;7.38;2.45;;;;;;;;;;5099963;28;20024;-77
2021/11/03 02:39:19;;;;;;;5.40;2.63;;;;;;;;;;5099862;28;20032;-76
2021/11/03 02:41:45;;;;;;;8.18;2.60;;;;;;;;;;5099714;28;20077;-76
2021/11/03 02:44:13;;;;;;;4.75;2.95;;;;;;;;;;5099836;28;20024;-76
2021/11/03 02:46:39;;;;;;;5.95;2.50;;;;;;;;;;5099718;28;20117;-76
2021/11/03 02:49:06;;;;;;;4.93;2.30;;;;;;;;;;5099375;28;20020;-77
2021/11/03 02:51:34;;;;;;;6.97;3.25;;;;;;;;;;5099593;28;20024;-76
2021/11/03 02:54:04;;;;;;;7.57;5.10;;;;;;;;;;5099683;28;20031;-76
2021/11/03 02:56:35;;;;;;;15.73;6.75;;;;;;;;;;5100160;28;20032;-77
2021/11/03 02:59:01;;;;;;;16.63;7.25;;;;;;;;;;5100059;28;20032;-77
2021/11/03 03:01:31;;;;;;;8.88;5.97;;;;;;;;;;5099741;28;20040;-76
2021/11/03 03:03:57;;;;;;;12.70;4.63;;;;;;;;;;5099923;28;20099;-75
2021/11/03 03:06:25;;;;;;;10.35;4.57;;;;;;;;;;5099416;28;20113;-75
2021/11/03 03:08:52;;;;;;;4.43;2.70;;;;;;;;;;5099770;28;20040;-75
2021/11/03 03:11:19;;;;;;;8.85;2.67;;;;;;;;;;5099130;28;20016;-75
2021/11/03 03:13:45;;;;;;;4.40;2.60;;;;;;;;;;5099073;28;20451;-76
2021/11/03 03:16:11;;;;;;;5.03;2.63;;;;;;;;;;5095574;28;20024;-76
2021/11/03 03:18:37;;;;;;;5.15;2.60;;;;;;;;;;5099663;28;20031;-76
2021/11/03 03:21:04;;;;;;;7.43;2.60;;;;;;;;;;5099195;28;20031;-76
2021/11/03 03:23:30;;;;;;;7.18;2.72;;;;;;;;;;5098894;28;20097;-76
2021/11/03 03:25:57;;;;;;;3.58;2.38;;;;;;;;;;5099216;28;20430;-76
2021/11/03 03:28:23;;;;;;;3.65;2.35;;;;;;;;;;5098769;28;20493;-76
2021/11/03 03:30:49;;;;;;;4.38;2.65;;;;;;;;;;5098506;28;20442;-76
2021/11/03 03:33:15;;;;;;;3.55;2.35;;;;;;;;;;5098679;28;20036;-75
2021/11/03 03:35:41;;;;;;;7.78;3.10;;;;;;;;;;5098780;28;20028;-75
2021/11/03 03:38:08;;;;;;;3.38;2.50;;;;;;;;;;5097617;28;20390;-75
2021/11/03 03:40:34;;;;;;;5.93;3.88;;;;;;;;;;5098822;28;20099;-75
2021/11/03 03:43:00;;;;;;;3.53;2.38;;;;;;;;;;5098656;28;20031;-75
2021/11/03 03:45:26;;;;;;;4.85;2.53;;;;;;;;;;5098596;28;20035;-75
2021/11/03 03:47:52;;;;;;;4.93;2.60;;;;;;;;;;5098442;28;20023;-74
2021/11/03 03:50:18;;;;;;;4.97;2.63;;;;;;;;;;5097563;28;20028;-75
2021/11/03 03:52:44;;;;;;;8.00;2.70;;;;;;;;;;5097005;28;20390;-76
2021/11/03 03:55:11;;;;;;;7.55;2.55;;;;;;;;;;5097383;28;20028;-75
2021/11/03 03:57:37;;;;;;;3.97;2.40;;;;;;;;;;5098384;28;20024;-75
2021/11/03 04:00:08;;;;;;;3.97;2.60;;;;;;;;;;5098314;28;20024;-75
2021/11/03 04:02:34;;;;;;;7.38;3.38;;;;;;;;;;5098847;28;20024;-75
2021/11/03 04:05:00;;;;;;;5.18;2.75;;;;;;;;;;5098142;28;20092;-76
2021/11/03 04:07:26;;;;;;;4.82;2.70;;;;;;;;;;5098650;28;20050;-76
2021/11/03 04:09:52;;;;;;;6.35;2.47;;;;;;;;;;5098411;28;20076;-76
2021/11/03 04:12:18;;;;;;;2.47;2.00;;;;;;;;;;5098613;28;20069;-75
2021/11/03 04:14:44;;;;;;;7.80;3.13;;;;;;;;;;5094506;28;20087;-76
2021/11/03 04:17:10;;;;;;;3.80;2.30;;;;;;;;;;5098297;28;20032;-77
2021/11/03 04:19:37;;;;;;;4.03;2.83;;;;;;;;;;5098795;28;20032;-76
2021/11/03 04:22:03;;;;;;;2.40;2.00;;;;;;;;;;5098422;28;20032;-76
2021/11/03 04:24:29;;;;;;;4.25;2.55;;;;;;;;;;5098662;28;20386;-76
2021/11/03 04:26:55;;;;;;;3.83;2.50;;;;;;;;;;5097219;28;20062;-74
2021/11/03 04:29:22;;;;;;;4.97;3.35;;;;;;;;;;5100304;28;20032;-74
2021/11/03 04:31:52;;;;;;;4.18;2.53;;;;;;;;;;5100798;28;20028;-76
2021/11/03 04:34:18;;;;;;;3.28;2.55;;;;;;;;;;5101211;28;20035;-74
2021/11/03 04:36:45;;;;;;;5.45;2.42;;;;;;;;;;5101406;28;20020;-76
2021/11/03 04:39:11;;;;;;;7.65;2.40;;;;;;;;;;5102510;28;20021;-75
2021/11/03 04:41:38;;;;;;;4.93;2.47;;;;;;;;;;5103096;28;20481;-76
2021/11/03 04:44:05;;;;;;;4.32;2.58;;;;;;;;;;5103895;28;20035;-75
2021/11/03 04:46:31;;;;;;;4.68;2.40;;;;;;;;;;5104123;28;20027;-75
2021/11/03 04:48:57;;;;;;;7.18;2.95;;;;;;;;;;5104199;28;20028;-76
2021/11/03 04:51:24;;;;;;;8.98;2.60;;;;;;;;;;5104085;28;20024;-75
2021/11/03 04:53:50;;;;;;;7.60;2.10;;;;;;;;;;5103503;28;20020;-76
2021/11/03 04:56:19;;;;;;;5.07;2.47;;;;;;;;;;5103601;28;20035;-75
2021/11/03 04:58:47;;;;;;;3.97;2.20;;;;;;;;;;5103876;28;20050;-74
2021/11/03 05:01:13;;;;;;;3.90;2.33;;;;;;;;;;5103193;28;20027;-75
2021/11/03 05:03:39;;;;;;;4.45;2.53;;;;;;;;;;5105103;28;20036;-75
2021/11/03 05:06:05;;;;;;;4.85;2.25;;;;;;;;;;5105326;28;20035;-74
2021/11/03 05:08:32;;;;;;;2.25;2.00;;;;;;;;;;5103948;28;20028;-76
2021/11/03 05:10:58;;;;;;;3.80;2.30;;;;;;;;;;5104858;28;20030;-76
2021/11/03 05:13:24;;;;;;;14.27;2.75;;;;;;;;;;5106969;28;20076;-75
2021/11/03 05:15:51;;;;;;;5.18;2.00;;;;;;;;;;5106104;28;20024;-76
2021/11/03 05:18:18;;;;;;;5.72;2.20;;;;;;;;;;5102781;28;20043;-75
2021/11/03 05:20:44;;;;;;;3.08;2.10;;;;;;;;;;5100928;28;20028;-77
2021/11/03 05:23:10;;;;;;;6.78;2.75;;;;;;;;;;5101895;28;20084;-75
2021/11/03 05:25:36;;;;;;;5.30;2.10;;;;;;;;;;5100282;28;20076;-75
2021/11/03 05:28:02;;;;;;;7.88;2.33;;;;;;;;;;5101906;28;20028;-75
2021/11/03 05:30:29;;;;;;;5.13;2.00;;;;;;;;;;5100467;28;20458;-74
2021/11/03 05:32:56;;;;;;;4.70;2.30;;;;;;;;;;5099456;28;20028;-75
2021/11/03 05:35:22;;;;;;;5.30;2.00;;;;;;;;;;5081092;28;20029;-76
2021/11/03 05:37:48;;;;;;;3.22;1.70;;;;;;;;;;5082405;28;20437;-75
2021/11/03 05:40:17;;;;;;;3.45;1.90;;;;;;;;;;5101481;28;20422;-76
2021/11/03 05:42:43;;;;;;;3.72;1.77;;;;;;;;;;5099159;28;20526;-75
2021/11/03 05:45:10;;;;;;;10.77;2.40;;;;;;;;;;5101901;28;20028;-75
2021/11/03 05:47:36;;;;;;;3.58;1.88;;;;;;;;;;5100995;28;20024;-76
2021/11/03 05:50:03;;;;;;;3.80;1.83;;;;;;;;;;5101393;28;20024;-76
2021/11/03 05:52:29;;;;;;;4.25;2.17;;;;;;;;;;5101105;28;20027;-75
2021/11/03 05:54:55;;;;;;;2.72;1.80;;;;;;;;;;5099883;28;20028;-76
2021/11/03 05:57:26;;;;;;;2.65;1.90;;;;;;;;;;5099480;28;20028;-77
2021/11/03 05:59:53;;;;;;;2.67;2.10;;;;;;;;;;5100906;28;20046;-75
2021/11/03 06:02:20;;;;;;;6.95;2.00;;;;;;;;;;5101330;28;20027;-74
2021/11/03 06:04:46;;;;;;;7.32;2.20;;;;;;;;;;5100514;28;20036;-75
2021/11/03 06:07:12;;;;;;;5.65;1.92;;;;;;;;;;5101261;28;20027;-75
2021/11/03 06:09:38;;;;;;;6.28;2.58;;;;;;;;;;5100623;28;20024;-76
2021/11/03 06:12:04;;;;;;;4.47;2.00;;;;;;;;;;5100739;28;20024;-76
2021/11/03 06:14:31;;;;;;;3.88;1.90;;;;;;;;;;5100201;28;20024;-76
2021/11/03 06:16:57;;;;;;;3.00;1.95;;;;;;;;;;5100487;28;20024;-76
2021/11/03 06:19:23;;;;;;;12.00;3.25;;;;;;;;;;5100389;28;20016;-76
2021/11/03 06:21:49;;;;;;;4.65;1.98;;;;;;;;;;5101000;28;20050;-76
2021/11/03 06:24:15;;;;;;;1.95;1.77;;;;;;;;;;5099408;28;20028;-76
2021/11/03 06:26:41;;;;;;;3.25;2.10;;;;;;;;;;5100693;28;20016;-76
2021/11/03 06:29:07;;;;;;;4.07;2.55;;;;;;;;;;5100130;28;20091;-76
2021/11/03 06:31:34;;;;;;;5.05;2.28;;;;;;;;;;5100381;28;20536;-75
2021/11/03 06:34:02;;;;;;;5.30;2.00;;;;;;;;;;5099321;28;20042;-76
2021/11/03 06:36:28;;;;;;;3.38;1.80;;;;;;;;;;5100495;28;20024;-75
2021/11/03 06:38:54;;;;;;;3.42;2.00;;;;;;;;;;5100265;28;20409;-76
2021/11/03 06:41:21;;;;;;;4.28;1.60;;;;;;;;;;5099934;28;20031;-76
2021/11/03 06:43:47;;;;;;;2.63;2.10;;;;;;;;;;5099142;28;20371;-76
2021/11/03 06:46:13;;;;;;;4.55;3.00;;;;;;;;;;5099785;28;20048;-75
2021/11/03 06:48:40;;;;;;;7.18;2.75;;;;;;;;;;5098523;28;20484;-76
2021/11/03 06:51:06;;;;;;;3.90;1.95;;;;;;;;;;5099683;28;20386;-76
2021/11/03 06:53:33;;;;;;;4.90;2.00;;;;;;;;;;5100132;28;20465;-75
2021/11/03 06:56:00;;;;;;;6.78;1.95;;;;;;;;;;5097744;28;20093;-76
2021/11/03 06:58:28;;;;;;;2.78;1.80;;;;;;;;;;5100196;28;20031;-76
2021/11/03 07:00:54;;;;;;;4.15;2.30;;;;;;;;;;5099343;28;20020;-75
2021/11/03 07:03:22;;;;;;;3.97;2.03;;;;;;;;;;5100245;28;20047;-76
2021/11/03 07:05:48;;;;;;;2.33;1.80;;;;;;;;;;5099728;28;20028;-76
2021/11/03 07:08:15;;;;;;;6.55;2.10;;;;;;;;;;5100265;28;20048;-75
2021/11/03 07:10:43;;;;;;;4.05;2.20;;;;;;;;;;5099661;28;20023;-76
2021/11/03 07:13:17;;;;;;;4.32;2.17;;;;;;;;;;5100975;28;20046;-75
2021/11/03 07:15:43;;;;;;;4.63;2.03;;;;;;;;;;5089782;28;20061;-75
2021/11/03 07:18:09;;;;;;;3.78;1.95;;;;;;;;;;5099641;28;20032;-76
2021/11/03 07:20:36;;;;;;;6.43;1.98;;;;;;;;;;5102368;28;20050;-76
2021/11/03 07:23:02;;;;;;;7.15;2.35;;;;;;;;;;5103997;28;20024;-75
2021/11/03 07:25:28;;;;;;;3.88;2.17;;;;;;;;;;5101932;28;20027;-76
2021/11/03 07:27:56;;;;;;;4.28;2.47;;;;;;;;;;5102077;28;20490;-76
2021/11/03 07:30:25;;;;;;;3.53;2.20;;;;;;;;;;5099815;28;20119;-75
2021/11/03 07:32:51;;;;;;;5.03;2.25;;;;;;;;;;5102565;28;20386;-75
2021/11/03 07:35:17;;;;;;;3.35;2.03;;;;;;;;;;5100430;28;20042;-75
2021/11/03 07:37:44;;;;;;;5.03;1.80;;;;;;;;;;5100412;28;20032;-76
2021/11/03 07:40:14;;;;;;;3.83;2.15;;;;;;;;;;5101141;28;20099;-75
2021/11/03 07:42:40;;;;;;;4.65;2.00;;;;;;;;;;5102072;28;20484;-76
2021/11/03 07:45:07;;;;;;;3.97;1.90;;;;;;;;;;5100567;28;20036;-76
2021/11/03 07:47:33;;;;;;;3.03;2.00;;;;;;;;;;5101066;28;20466;-76
2021/11/03 07:49:59;;;;;;;6.53;2.17;;;;;;;;;;5100537;28;20382;-75
2021/11/03 07:52:25;;;;;;;6.63;2.10;;;;;;;;;;5098973;28;20034;-76
2021/11/03 07:54:51;;;;;;;4.88;2.92;;;;;;;;;;5099431;28;20031;-76
2021/11/03 07:57:19;;;;;;;3.88;1.90;;;;;;;;;;5099463;28;20028;-76
2021/11/03 07:59:45;;;;;;;8.77;2.70;;;;;;;;;;5099710;28;20178;-75
2021/11/03 08:02:11;;;;;;;3.60;2.00;;;;;;;;;;5098878;28;20470;-76
2021/11/03 08:04:37;;;;;;;3.67;2.10;;;;;;;;;;5098680;28;20105;-75
2021/11/03 08:07:07;;;;;;;2.50;1.60;;;;;;;;;;5098989;28;20379;-76
2021/11/03 08:09:33;;;;;;;5.32;2.03;;;;;;;;;;5092699;28;20035;-76
2021/11/03 08:12:02;;;;;;;4.57;2.05;;;;;;;;;;5097286;28;20031;-75
2021/11/03 08:14:30;;;;;;;2.72;1.83;;;;;;;;;;5098769;28;20020;-76
2021/11/03 08:17:07;;;;;;;3.00;1.80;;;;;;;;;;5100281;28;20020;-76
2021/11/03 08:19:39;;;;;;;3.50;1.70;;;;;;;;;;5095445;28;20028;-75
2021/11/03 08:22:06;;;;;;;4.05;1.80;;;;;;;;;;5096739;28;20028;-75
2021/11/03 08:24:32;;;;;;;3.72;1.70;;;;;;;;;;5096981;28;20081;-76
2021/11/03 08:26:58;;;;;;;2.67;2.03;;;;;;;;;;5098695;28;20031;-77
2021/11/03 08:29:25;;;;;;;4.07;1.75;;;;;;;;;;5101181;28;20047;-76
2021/11/03 08:31:55;;;;;;;4.43;2.13;;;;;;;;;;5099306;28;20752;-76
2021/11/03 08:34:22;;;;;;;3.67;1.70;;;;;;;;;;5097500;28;20082;-76
2021/11/03 08:36:48;;;;;;;3.65;1.80;;;;;;;;;;5098598;28;20024;-75
2021/11/03 08:39:14;;;;;;;3.00;1.80;;;;;;;;;;5095916;28;20038;-76
2021/11/03 08:41:40;;;;;;;2.83;1.80;;;;;;;;;;5097564;28;20094;-76
2021/11/03 08:44:06;;;;;;;4.75;1.77;;;;;;;;;;5099856;28;20029;-77
2021/11/03 08:46:32;;;;;;;4.55;1.80;;;;;;;;;;5097829;28;20039;-78
2021/11/03 08:49:00;;;;;;;2.72;1.60;;;;;;;;;;5102872;28;20104;-77
2021/11/03 08:51:26;;;;;;;3.42;1.70;;;;;;;;;;5098399;28;20024;-77
2021/11/03 08:53:53;;;;;;;3.97;1.90;;;;;;;;;;5100047;28;20035;-77
2021/11/03 08:56:19;;;;;;;3.67;1.85;;;;;;;;;;5099136;28;20052;-78
2021/11/03 08:58:46;;;;;;;4.57;2.00;;;;;;;;;;5099298;28;20165;-76
2021/11/03 09:01:12;;;;;;;5.90;1.90;;;;;;;;;;5102827;28;20113;-76
2021/11/03 09:03:40;;;;;;;2.45;1.73;;;;;;;;;;5097655;28;20047;-75
2021/11/03 09:06:06;;;;;;;6.03;2.22;;;;;;;;;;5098238;28;20040;-75
2021/11/03 09:08:32;;;;;;;2.90;2.33;;;;;;;;;;5099947;28;20027;-76
2021/11/03 09:11:03;;;;;;;4.18;1.90;;;;;;;;;;5099776;28;20032;-75
2021/11/03 09:13:30;;;;;;;5.78;1.90;;;;;;;;;;5096094;28;20024;-76
2021/11/03 09:15:58;;;;;;;3.47;1.80;;;;;;;;;;5098332;28;20040;-75
2021/11/03 09:18:24;;;;;;;5.93;2.33;;;;;;;;;;5099416;28;20036;-74
2021/11/03 09:20:51;;;;;;;8.90;1.73;;;;;;;;;;5098558;28;20386;-75
2021/11/03 09:23:17;;;;;;;3.63;2.28;;;;;;;;;;5101948;28;20036;-77
2021/11/03 09:25:44;;;;;;;3.25;1.83;;;;;;;;;;5102572;28;20144;-77
2021/11/03 09:28:10;;;;;;;4.65;1.80;;;;;;;;;;5100307;28;20054;-77
2021/11/03 09:30:37;;;;;;;6.75;1.90;;;;;;;;;;5104047;28;20019;-76
2021/11/03 09:33:05;;;;;;;8.25;1.90;;;;;;;;;;5103994;28;20020;-76
2021/11/03 09:35:33;;;;;;;4.45;2.00;;;;;;;;;;5103326;28;20024;-76
2021/11/03 09:38:00;;;;;;;3.80;1.75;;;;;;;;;;5094842;28;20085;-77
2021/11/03 09:40:37;;;;;;;4.95;2.28;;;;;;;;;;5086655;28;20040;-77
2021/11/03 09:43:05;;;;;;;5.00;1.77;;;;;;;;;;5103228;28;20105;-78
2021/11/03 09:45:32;;;;;;;4.97;2.45;;;;;;;;;;5102012;28;20028;-77
2021/11/03 09:48:02;;;;;;;3.67;1.92;;;;;;;;;;5103923;28;20428;-77
2021/11/03 09:50:28;;;;;;;4.40;2.67;;;;;;;;;;5099495;28;20028;-77
2021/11/03 09:52:58;;;;;;;3.47;1.60;;;;;;;;;;5103514;28;20028;-79
2021/11/03 09:55:26;;;;;;;7.72;1.85;;;;;;;;;;5092458;28;20043;-77
2021/11/03 09:57:59;;;;;;;6.03;2.05;;;;;;;;;;5094280;28;20036;-77
2021/11/03 10:00:28;;;;;;;4.38;2.25;;;;;;;;;;5096446;28;20024;-78
2021/11/03 10:03:11;;;;;;;10.95;2.30;;;;;;;;;;5093693;28;20040;-77
2021/11/03 10:05:56;;;;;;;5.10;1.95;;;;;;;;;;5097809;28;20073;-77
2021/11/03 10:08:24;;;;;;;5.10;1.80;;;;;;;;;;5097332;28;20054;-78
2021/11/03 10:10:52;;;;;;;5.25;1.98;;;;;;;;;;5100431;28;20099;-77
2021/11/03 10:13:25;;;;;;;5.90;1.90;;;;;;;;;;5104918;28;20587;-77
2021/11/03 10:16:00;;;;;;;3.42;1.60;;;;;;;;;;5104554;28;20036;-77
2021/11/03 10:18:28;;;;;;;5.78;2.10;;;;;;;;;;5102328;28;20054;-78
2021/11/03 10:20:59;;;;;;;4.15;1.70;;;;;;;;;;5102756;28;20020;-76
2021/11/03 10:23:27;;;;;;;5.00;1.80;;;;;;;;;;5098388;28;20107;-77
2021/11/03 10:26:11;;;;;;;2.03;1.52;;;;;;;;;;5091460;28;20099;-77
2021/11/03 10:28:42;;;;;;;4.57;2.10;;;;;;;;;;5100362;28;20099;-76
2021/11/03 10:31:20;;;;;;;4.88;1.90;;;;;;;;;;5098012;28;20066;-77
2021/11/03 10:33:46;;;;;;;5.03;2.00;;;;;;;;;;5097635;28;20098;-76
2021/11/03 10:36:20;;;;;;;5.38;2.17;;;;;;;;;;5097360;28;20036;-76
2021/11/03 10:38:57;;;;;;;5.38;2.10;;;;;;;;;;5096150;28;20032;-76
2021/11/03 10:41:28;;;;;;;4.88;2.45;;;;;;;;;;5098985;28;20066;-77
2021/11/03 10:44:13;;;;;;;4.60;2.10;;;;;;;;;;5101032;28;20020;-76
2021/11/03 10:47:02;;;;;;;3.60;2.10;;;;;;;;;;5100507;28;20437;-78
2021/11/03 10:49:51;;;;;;;3.25;1.63;;;;;;;;;;5098126;28;20047;-77
2021/11/03 10:52:25;;;;;;;8.05;1.83;;;;;;;;;;5096022;28;20069;-77
2021/11/03 10:54:55;;;;;;;5.93;1.70;;;;;;;;;;5099232;28;20031;-77
2021/11/03 10:57:21;;;;;;;7.20;2.10;;;;;;;;;;5100390;28;20039;-77
2021/11/03 10:59:52;;;;;;;3.40;2.00;;;;;;;;;;5091561;28;20239;-77
2021/11/03 11:02:23;;;;;;;3.85;1.92;;;;;;;;;;5097561;28;20058;-77
2021/11/03 11:04:50;;;;;;;6.45;2.72;;;;;;;;;;5095846;28;20044;-75
2021/11/03 11:07:29;;;;;;;4.38;1.80;;;;;;;;;;5095424;28;20028;-76
2021/11/03 11:10:13;;;;;;;4.72;1.92;;;;;;;;;;5097149;28;20028;-76
2021/11/03 11:12:42;;;;;;;3.15;1.85;;;;;;;;;;5094471;28;20058;-76
2021/11/03 11:15:15;;;;;;;5.35;2.15;;;;;;;;;;5090345;28;20040;-77
2021/11/03 11:18:00;;;;;;;5.18;2.88;;;;;;;;;;5095620;28;20099;-76
2021/11/03 11:20:31;;;;;;;6.45;1.90;;;;;;;;;;5094404;28;20032;-77
2021/11/03 11:23:19;;;;;;;4.78;1.95;;;;;;;;;;5094183;28;20103;-76
2021/11/03 11:25:47;;;;;;;7.75;1.77;;;;;;;;;;5095769;28;20024;-77
2021/11/03 11:28:32;;;;;;;7.78;2.28;;;;;;;;;;5094709;28;20024;-76
2021/11/03 11:31:08;;;;;;;6.57;1.95;;;;;;;;;;5094193;28;20035;-76
2021/11/03 11:33:46;;;;;;;2.90;1.60;;;;;;;;;;5095874;28;20125;-76
2021/11/03 11:36:15;;;;;;;4.65;1.95;;;;;;;;;;5091884;28;20028;-77
2021/11/03 11:39:01;;;;;;;6.38;2.00;;;;;;;;;;5092502;28;20066;-76
2021/11/03 11:41:48;;;;;;;2.90;1.70;;;;;;;;;;5087570;28;20038;-75
2021/11/03 11:44:18;;;;;;;5.32;2.03;;;;;;;;;;5091791;28;20089;-74
2021/11/03 11:46:45;;;;;;;7.63;2.83;;;;;;;;;;5094757;28;20074;-76
2021/11/03 11:49:17;;;;;;;5.15;2.47;;;;;;;;;;5093582;28;20035;-75
2021/11/03 11:51:45;;;;;;;3.10;2.55;;;;;;;;;;5095110;28;20039;-76
2021/11/03 11:54:27;;;;;;;15.48;6.90;;;;;;;;;;5094430;28;20024;-74
2021/11/03 11:57:11;;;;;;;5.80;2.10;;;;;;;;;;5094118;28;20028;-76
2021/11/03 12:00:00;;;;;;;3.38;2.45;;;;;;;;;;5095531;28;20039;-76
2021/11/03 12:02:27;;;;;;;3.08;1.85;;;;;;;;;;5095539;28;20032;-76
2021/11/03 12:05:13;;;;;;;3.53;3.03;;;;;;;;;;5096229;28;20036;-75
2021/11/03 12:07:40;;;;;;;4.18;1.70;;;;;;;;;;5095786;28;20016;-73
2021/11/03 12:10:17;;;;;;;3.05;1.80;;;;;;;;;;5094694;28;20031;-76
2021/11/03 12:13:02;;;;;;;3.75;2.00;;;;;;;;;;5095424;28;20036;-77
2021/11/03 12:15:47;;;;;;;4.28;2.63;;;;;;;;;;5090017;28;20036;-77
2021/11/03 12:18:19;;;;;;;6.13;2.33;;;;;;;;;;5095345;28;20070;-77
2021/11/03 12:21:03;;;;;;;5.70;2.72;;;;;;;;;;5095222;28;20631;-77
2021/11/03 12:23:51;;;;;;;1.92;1.60;;;;;;;;;;5093053;28;20032;-77
2021/11/03 12:26:29;;;;;;;5.32;1.95;;;;;;;;;;5098146;28;21556;-75
2021/11/03 12:28:55;;;;;;;3.28;1.98;;;;;;;;;;5087039;28;20039;-76
2021/11/03 12:31:26;;;;;;;2.30;1.70;;;;;;;;;;5097195;28;20103;-75
2021/11/03 12:34:04;;;;;;;2.85;1.67;;;;;;;;;;5096555;28;20106;-76
2021/11/03 12:36:34;;;;;;;2.15;1.70;;;;;;;;;;5097627;28;20058;-75
2021/11/03 12:39:04;;;;;;;4.68;2.08;;;;;;;;;;5097838;28;20042;-76
2021/11/03 12:41:37;;;;;;;4.90;2.83;;;;;;;;;;5099193;28;20021;-77
2021/11/03 12:44:04;;;;;;;2.92;1.92;;;;;;;;;;5098287;28;20042;-76
2021/11/03 12:46:32;;;;;;;3.33;2.20;;;;;;;;;;5098187;28;20042;-76
2021/11/03 12:48:59;;;;;;;2.05;1.73;;;;;;;;;;5099569;28;20028;-75
2021/11/03 12:51:33;;;;;;;6.07;2.33;;;;;;;;;;5108648;28;20048;-77
2021/11/03 12:54:02;;;;;;;5.95;3.70;;;;;;;;;;5108363;28;20077;-76
2021/11/03 12:56:30;;;;;;;4.25;2.08;;;;;;;;;;5110147;28;20115;-76
2021/11/03 12:58:57;;;;;;;1.88;1.55;;;;;;;;;;5109746;28;20079;-75
2021/11/03 13:01:26;;;;;;;1.65;1.55;;;;;;;;;;5109984;28;20066;-76
2021/11/03 13:04:03;;;;;;;4.38;1.67;;;;;;;;;;5109904;28;20048;-75
2021/11/03 13:06:34;;;;;;;3.50;1.80;;;;;;;;;;5109988;28;20099;-75
2021/11/03 13:09:02;;;;;;;2.70;2.10;;;;;;;;;;5110397;28;20083;-75
2021/11/03 13:11:35;;;;;;;2.15;1.63;;;;;;;;;;5108872;28;20032;-77
2021/11/03 13:14:03;;;;;;;1.70;1.60;;;;;;;;;;5108623;28;20048;-76
2021/11/03 13:16:29;;;;;;;3.47;1.52;;;;;;;;;;5110324;28;20024;-76
2021/11/03 13:18:56;;;;;;;2.17;1.90;;;;;;;;;;5109917;28;20044;-75
2021/11/03 13:21:22;;;;;;;2.20;1.48;;;;;;;;;;5109469;28;20028;-76
2021/11/03 13:23:49;;;;;;;1.65;1.52;;;;;;;;;;5110012;28;20078;-75
2021/11/03 13:26:25;;;;;;;3.40;2.13;;;;;;;;;;5109446;28;20052;-76
2021/11/03 13:28:52;;;;;;;4.15;1.83;;;;;;;;;;5108779;28;20028;-78
2021/11/03 13:31:39;;;;;;;4.10;2.30;;;;;;;;;;5109713;28;20017;-75
2021/11/03 13:34:11;;;;;;;3.10;1.70;;;;;;;;;;5114809;28;20035;-77
2021/11/03 13:36:37;;;;;;;2.70;1.50;;;;;;;;;;5115033;28;20050;-77
2021/11/03 13:39:03;;;;;;;2.50;1.60;;;;;;;;;;5115349;28;20023;-77
2021/11/03 13:41:38;;;;;;;2.58;2.08;;;;;;;;;;5113730;28;20027;-75
2021/11/03 13:44:13;;;;;;;3.40;1.95;;;;;;;;;;5113726;28;20036;-76
2021/11/03 13:46:39;;;;;;;3.53;2.63;;;;;;;;;;5111823;28;20036;-76
2021/11/03 13:49:28;;;;;;;1.75;1.17;;;;;;;;;;5093465;28;20097;-74
2021/11/03 13:51:58;;;;;;;2.90;1.70;;;;;;;;;;5085777;28;20036;-77
2021/11/03 13:54:35;;;;;;;1.38;1.27;;;;;;;;;;5110499;28;20024;-76
2021/11/03 13:57:06;;;;;;;2.50;1.50;;;;;;;;;;5114051;28;20541;-76
2021/11/03 13:59:37;;;;;;;2.95;1.70;;;;;;;;;;5117989;28;20024;-76
2021/11/03 14:02:09;;;;;;;3.20;1.50;;;;;;;;;;5117819;28;20040;-74
2021/11/03 14:04:44;;;;;;;2.72;1.52;;;;;;;;;;5115867;28;20101;-76
2021/11/03 14:07:10;;;;;;;;;;;;;;;;;;5117555;28;20020;-76
2021/11/03 14:09:36;;;;;;;2.58;1.38;;;;;;;;;;5115339;28;19939;-74
2021/11/03 14:12:02;;;;;;;1.48;1.35;;;;;;;;;;5101634;28;20169;-75
2021/11/03 14:14:29;;;;;;;2.13;1.60;;;;;;;;;;5101546;28;20077;-76
2021/11/03 14:17:04;;;;;;;2.03;1.60;;;;;;;;;;5103470;28;20031;-76
2021/11/03 14:19:30;;;;;;;;;;;;;;;;;;5101568;28;20008;-76
2021/11/03 14:21:57;;;;;;;1.58;1.48;;;;;;;;;;5101863;28;19970;-76
2021/11/03 14:24:24;;;;;;;1.65;1.55;;;;;;;;;;5100178;28;20390;-75
2021/11/03 14:26:50;;;;;;;2.53;1.70;;;;;;;;;;5102672;28;20036;-74
2021/11/03 14:29:16;;;;;;;2.78;1.25;;;;;;;;;;5101924;28;20078;-76
2021/11/03 14:31:43;;;;;;;2.45;1.65;;;;;;;;;;5102613;28;20032;-76
2021/11/03 14:34:17;;;;;;;1.77;1.52;;;;;;;;;;5108076;28;20024;-76
2021/11/03 14:36:46;;;;;;;2.22;1.60;;;;;;;;;;5110162;28;20039;-76
2021/11/03 14:39:20;;;;;;;2.15;1.55;;;;;;;;;;5108876;28;20028;-77
2021/11/03 14:41:46;;;;;;;1.77;1.48;;;;;;;;;;5111244;28;20049;-77
2021/11/03 14:44:13;;;;;;;1.52;1.30;;;;;;;;;;5111320;28;20027;-76
2021/11/03 14:46:41;;;;;;;4.20;1.55;;;;;;;;;;5112303;28;20032;-77
2021/11/03 14:49:26;;;;;;;4.72;1.98;;;;;;;;;;5108973;28;20020;-76
2021/11/03 14:51:52;;;;;;;4.33;1.70;;;;;;;;;;5111424;28;20016;-78
2021/11/03 14:54:19;;;;;;;3.70;1.88;;;;;;;;;;5105177;28;20039;-77